<?xml version="1.0" encoding="UTF-8" standalone="no" ?>
<gpx xmlns="http://www.topografix.com/GPX/1/1" xmlns:xsi="http://www.w3.org/2001/XMLSchema-instance" xsi:schemaLocation="http://www.topografix.com/GPX/1/1 http://www.topografix.com/GPX/1/1/gpx.xsd" version="1.1" creator="VisuGPX - https://www.visugpx.com">
  <metadata>
    <name>Arboux</name>
    <desc><![CDATA[Arboux Costubague Rouas Peyrefiche Beaulieu]]></desc>
  </metadata>
  <wpt lat="44.10104" lon="3.44793">
    <ele>885.4934082</ele>
    <name><![CDATA[001]]></name>
    <desc><![CDATA[12-SEP-12 10:44:13]]></desc>
    <cmt><![CDATA[12-SEP-12 10:44:13]]></cmt>
  </wpt>
  <wpt lat="44.10105" lon="3.44795">
    <ele>887.4160156</ele>
    <name><![CDATA[002]]></name>
    <desc><![CDATA[12-SEP-12 10:44:19]]></desc>
    <cmt><![CDATA[12-SEP-12 10:44:19]]></cmt>
  </wpt>
  <trk>
    <name><![CDATA[ACTIVE LOG 002]]></name>
    <trkseg>
      <trkpt lat="44.0085" lon="3.64783">
        <ele>242.8702393</ele>
        <time>2012-10-09T07:25:30Z</time>
      </trkpt>
      <trkpt lat="44.00887" lon="3.64816">
        <ele>234.6990967</ele>
        <time>2012-10-09T07:28:00Z</time>
      </trkpt>
      <trkpt lat="44.00931" lon="3.64748">
        <ele>244.3122559</ele>
        <time>2012-10-09T07:29:18Z</time>
      </trkpt>
      <trkpt lat="44.00986" lon="3.64682">
        <ele>257.2900391</ele>
        <time>2012-10-09T07:31:49Z</time>
      </trkpt>
      <trkpt lat="44.01062" lon="3.64668">
        <ele>268.8258057</ele>
        <time>2012-10-09T07:33:58Z</time>
      </trkpt>
      <trkpt lat="44.01077" lon="3.64637">
        <ele>282.2843018</ele>
        <time>2012-10-09T07:35:54Z</time>
      </trkpt>
      <trkpt lat="44.01082" lon="3.64589">
        <ele>296.2235107</ele>
        <time>2012-10-09T07:37:50Z</time>
      </trkpt>
      <trkpt lat="44.01123" lon="3.64562">
        <ele>316.8917236</ele>
        <time>2012-10-09T07:40:19Z</time>
      </trkpt>
      <trkpt lat="44.01151" lon="3.64469">
        <ele>338.0407715</ele>
        <time>2012-10-09T07:42:55Z</time>
      </trkpt>
      <trkpt lat="44.01188" lon="3.64373">
        <ele>360.151123</ele>
        <time>2012-10-09T07:45:21Z</time>
      </trkpt>
      <trkpt lat="44.01229" lon="3.64272">
        <ele>382.2613525</ele>
        <time>2012-10-09T07:47:27Z</time>
      </trkpt>
      <trkpt lat="44.01259" lon="3.64175">
        <ele>391.8745117</ele>
        <time>2012-10-09T07:55:20Z</time>
      </trkpt>
      <trkpt lat="44.01271" lon="3.64064">
        <ele>403.4104004</ele>
        <time>2012-10-09T07:57:31Z</time>
      </trkpt>
      <trkpt lat="44.01212" lon="3.6397">
        <ele>420.2333984</ele>
        <time>2012-10-09T08:00:13Z</time>
      </trkpt>
      <trkpt lat="44.01276" lon="3.63984">
        <ele>438.0178223</ele>
        <time>2012-10-09T08:02:18Z</time>
      </trkpt>
      <trkpt lat="44.01284" lon="3.63878">
        <ele>450.5150146</ele>
        <time>2012-10-09T08:05:48Z</time>
      </trkpt>
      <trkpt lat="44.01346" lon="3.63815">
        <ele>458.6861572</ele>
        <time>2012-10-09T08:07:34Z</time>
      </trkpt>
      <trkpt lat="44.01406" lon="3.63767">
        <ele>466.8574219</ele>
        <time>2012-10-09T08:09:16Z</time>
      </trkpt>
      <trkpt lat="44.0146" lon="3.63695">
        <ele>476.9512939</ele>
        <time>2012-10-09T08:10:51Z</time>
      </trkpt>
      <trkpt lat="44.015" lon="3.63613">
        <ele>486.5644531</ele>
        <time>2012-10-09T08:12:20Z</time>
      </trkpt>
      <trkpt lat="44.01564" lon="3.63629">
        <ele>488.0064697</ele>
        <time>2012-10-09T08:16:29Z</time>
      </trkpt>
      <trkpt lat="44.01628" lon="3.6356">
        <ele>494.2550049</ele>
        <time>2012-10-09T08:17:41Z</time>
      </trkpt>
      <trkpt lat="44.01668" lon="3.63492">
        <ele>494.7355957</ele>
        <time>2012-10-09T08:18:37Z</time>
      </trkpt>
      <trkpt lat="44.01719" lon="3.6344">
        <ele>501.9455566</ele>
        <time>2012-10-09T08:19:40Z</time>
      </trkpt>
      <trkpt lat="44.01748" lon="3.63377">
        <ele>507.713501</ele>
        <time>2012-10-09T08:26:24Z</time>
      </trkpt>
      <trkpt lat="44.0177" lon="3.63282">
        <ele>513.4814453</ele>
        <time>2012-10-09T08:27:31Z</time>
      </trkpt>
      <trkpt lat="44.01801" lon="3.63196">
        <ele>511.0780029</ele>
        <time>2012-10-09T08:28:48Z</time>
      </trkpt>
      <trkpt lat="44.01854" lon="3.63149">
        <ele>511.5587158</ele>
        <time>2012-10-09T08:30:12Z</time>
      </trkpt>
      <trkpt lat="44.01902" lon="3.63118">
        <ele>504.8294678</ele>
        <time>2012-10-09T08:31:26Z</time>
      </trkpt>
      <trkpt lat="44.01944" lon="3.63062">
        <ele>503.3874512</ele>
        <time>2012-10-09T08:32:49Z</time>
      </trkpt>
      <trkpt lat="44.01966" lon="3.63031">
        <ele>494.7355957</ele>
        <time>2012-10-09T08:34:00Z</time>
      </trkpt>
      <trkpt lat="44.01978" lon="3.62944">
        <ele>492.8129883</ele>
        <time>2012-10-09T08:35:25Z</time>
      </trkpt>
      <trkpt lat="44.02017" lon="3.62865">
        <ele>490.8903809</ele>
        <time>2012-10-09T08:36:17Z</time>
      </trkpt>
      <trkpt lat="44.02086" lon="3.62833">
        <ele>489.9290771</ele>
        <time>2012-10-09T08:37:26Z</time>
      </trkpt>
      <trkpt lat="44.02168" lon="3.62857">
        <ele>492.8129883</ele>
        <time>2012-10-09T08:38:43Z</time>
      </trkpt>
      <trkpt lat="44.02236" lon="3.6284">
        <ele>491.8516846</ele>
        <time>2012-10-09T08:39:51Z</time>
      </trkpt>
      <trkpt lat="44.02238" lon="3.62741">
        <ele>489.9290771</ele>
        <time>2012-10-09T08:40:55Z</time>
      </trkpt>
      <trkpt lat="44.02281" lon="3.62729">
        <ele>485.1224365</ele>
        <time>2012-10-09T08:41:57Z</time>
      </trkpt>
      <trkpt lat="44.02341" lon="3.62778">
        <ele>481.7578125</ele>
        <time>2012-10-09T08:42:56Z</time>
      </trkpt>
      <trkpt lat="44.02402" lon="3.62815">
        <ele>477.4318848</ele>
        <time>2012-10-09T08:45:19Z</time>
      </trkpt>
      <trkpt lat="44.02466" lon="3.62834">
        <ele>474.0672607</ele>
        <time>2012-10-09T08:46:25Z</time>
      </trkpt>
      <trkpt lat="44.02536" lon="3.62867">
        <ele>469.2607422</ele>
        <time>2012-10-09T08:47:41Z</time>
      </trkpt>
      <trkpt lat="44.02609" lon="3.62904">
        <ele>463.012085</ele>
        <time>2012-10-09T08:49:34Z</time>
      </trkpt>
      <trkpt lat="44.02594" lon="3.62989">
        <ele>445.708374</ele>
        <time>2012-10-09T08:51:34Z</time>
      </trkpt>
      <trkpt lat="44.02645" lon="3.63036">
        <ele>433.2113037</ele>
        <time>2012-10-09T08:53:04Z</time>
      </trkpt>
      <trkpt lat="44.02611" lon="3.63083">
        <ele>422.6367188</ele>
        <time>2012-10-09T08:55:14Z</time>
      </trkpt>
      <trkpt lat="44.02628" lon="3.63149">
        <ele>422.6367188</ele>
        <time>2012-10-09T08:58:14Z</time>
      </trkpt>
      <trkpt lat="44.02705" lon="3.63164">
        <ele>430.8079834</ele>
        <time>2012-10-09T08:59:31Z</time>
      </trkpt>
      <trkpt lat="44.02774" lon="3.63206">
        <ele>438.4985352</ele>
        <time>2012-10-09T09:01:18Z</time>
      </trkpt>
      <trkpt lat="44.028" lon="3.63252">
        <ele>447.6309814</ele>
        <time>2012-10-09T09:02:55Z</time>
      </trkpt>
      <trkpt lat="44.02754" lon="3.63309">
        <ele>453.3989258</ele>
        <time>2012-10-09T09:04:17Z</time>
      </trkpt>
      <trkpt lat="44.02696" lon="3.63387">
        <ele>458.6861572</ele>
        <time>2012-10-09T09:05:59Z</time>
      </trkpt>
      <trkpt lat="44.02706" lon="3.63429">
        <ele>468.2993164</ele>
        <time>2012-10-09T09:06:59Z</time>
      </trkpt>
      <trkpt lat="44.02768" lon="3.63451">
        <ele>478.3931885</ele>
        <time>2012-10-09T09:08:51Z</time>
      </trkpt>
      <trkpt lat="44.02762" lon="3.63496">
        <ele>489.9290771</ele>
        <time>2012-10-09T09:10:50Z</time>
      </trkpt>
      <trkpt lat="44.02836" lon="3.63541">
        <ele>498.1003418</ele>
        <time>2012-10-09T09:12:39Z</time>
      </trkpt>
      <trkpt lat="44.02901" lon="3.63571">
        <ele>505.3101807</ele>
        <time>2012-10-09T09:14:09Z</time>
      </trkpt>
      <trkpt lat="44.02973" lon="3.63511">
        <ele>516.3652344</ele>
        <time>2012-10-09T09:16:18Z</time>
      </trkpt>
      <trkpt lat="44.0305" lon="3.63471">
        <ele>531.2657471</ele>
        <time>2012-10-09T09:19:07Z</time>
      </trkpt>
      <trkpt lat="44.03131" lon="3.63453">
        <ele>544.7242432</ele>
        <time>2012-10-09T09:21:37Z</time>
      </trkpt>
      <trkpt lat="44.03211" lon="3.63477">
        <ele>551.4533691</ele>
        <time>2012-10-09T09:23:14Z</time>
      </trkpt>
      <trkpt lat="44.03292" lon="3.635">
        <ele>564.9118652</ele>
        <time>2012-10-09T09:25:22Z</time>
      </trkpt>
      <trkpt lat="44.0339" lon="3.63508">
        <ele>580.7736816</ele>
        <time>2012-10-09T09:30:39Z</time>
      </trkpt>
      <trkpt lat="44.03469" lon="3.63502">
        <ele>592.3095703</ele>
        <time>2012-10-09T09:32:15Z</time>
      </trkpt>
      <trkpt lat="44.03546" lon="3.63498">
        <ele>603.364502</ele>
        <time>2012-10-09T09:33:42Z</time>
      </trkpt>
      <trkpt lat="44.03563" lon="3.63481">
        <ele>617.7841797</ele>
        <time>2012-10-09T09:35:57Z</time>
      </trkpt>
      <trkpt lat="44.03509" lon="3.63396">
        <ele>626.9169922</ele>
        <time>2012-10-09T09:37:40Z</time>
      </trkpt>
      <trkpt lat="44.03568" lon="3.63372">
        <ele>637.0107422</ele>
        <time>2012-10-09T09:39:28Z</time>
      </trkpt>
      <trkpt lat="44.03645" lon="3.63414">
        <ele>642.7788086</ele>
        <time>2012-10-09T09:40:56Z</time>
      </trkpt>
      <trkpt lat="44.03728" lon="3.63431">
        <ele>649.5078125</ele>
        <time>2012-10-09T09:42:35Z</time>
      </trkpt>
      <trkpt lat="44.03825" lon="3.63444">
        <ele>657.6791992</ele>
        <time>2012-10-09T09:44:15Z</time>
      </trkpt>
      <trkpt lat="44.03901" lon="3.63486">
        <ele>665.8503418</ele>
        <time>2012-10-09T09:45:42Z</time>
      </trkpt>
      <trkpt lat="44.03977" lon="3.63501">
        <ele>667.2922363</ele>
        <time>2012-10-09T09:47:08Z</time>
      </trkpt>
      <trkpt lat="44.04049" lon="3.63485">
        <ele>668.2536621</ele>
        <time>2012-10-09T09:48:41Z</time>
      </trkpt>
      <trkpt lat="44.04127" lon="3.63484">
        <ele>675.4633789</ele>
        <time>2012-10-09T09:50:08Z</time>
      </trkpt>
      <trkpt lat="44.04194" lon="3.63518">
        <ele>677.3862305</ele>
        <time>2012-10-09T09:51:31Z</time>
      </trkpt>
      <trkpt lat="44.04226" lon="3.63532">
        <ele>679.3085938</ele>
        <time>2012-10-09T10:01:06Z</time>
      </trkpt>
      <trkpt lat="44.04318" lon="3.63586">
        <ele>680.2700195</ele>
        <time>2012-10-09T10:02:48Z</time>
      </trkpt>
      <trkpt lat="44.04402" lon="3.63545">
        <ele>682.6733398</ele>
        <time>2012-10-09T10:04:32Z</time>
      </trkpt>
      <trkpt lat="44.04454" lon="3.63564">
        <ele>688.4414063</ele>
        <time>2012-10-09T10:07:36Z</time>
      </trkpt>
    </trkseg>
  </trk>
</gpx>